sensor_id;sensor_type;location;lat;lon;timestamp;temperature;humidity
18297;DHT22;18066;52.106;5.534;2022-10-16T00:01:09;13.70;99.90
18297;DHT22;18066;52.106;5.534;2022-10-16T00:03:36;13.70;99.90
18297;DHT22;18066;52.106;5.534;2022-10-16T00:06:04;14.10;99.90
18297;DHT22;18066;52.106;5.534;2022-10-16T00:08:32;13.70;99.90
18297;DHT22;18066;52.106;5.534;2022-10-16T00:11:00;13.70;99.90
18297;DHT22;18066;52.106;5.534;2022-10-16T00:13:29;13.70;99.90
18297;DHT22;18066;52.106;5.534;2022-10-16T00:15:56;13.60;99.90
18297;DHT22;18066;52.106;5.534;2022-10-16T00:18:24;13.70;99.90
18297;DHT22;18066;52.106;5.534;2022-10-16T00:20:51;13.70;99.90
18297;DHT22;18066;52.106;5.534;2022-10-16T00:23:18;13.80;99.90
18297;DHT22;18066;52.106;5.534;2022-10-16T00:25:44;13.70;99.90
18297;DHT22;18066;52.106;5.534;2022-10-16T00:28:11;13.80;99.90
18297;DHT22;18066;52.106;5.534;2022-10-16T00:30:39;14.10;99.90
18297;DHT22;18066;52.106;5.534;2022-10-16T00:33:06;13.70;99.90
18297;DHT22;18066;52.106;5.534;2022-10-16T00:35:33;13.80;99.90
18297;DHT22;18066;52.106;5.534;2022-10-16T00:38:00;13.80;99.90
18297;DHT22;18066;52.106;5.534;2022-10-16T00:40:26;13.70;99.90
18297;DHT22;18066;52.106;5.534;2022-10-16T00:42:53;13.70;99.90
18297;DHT22;18066;52.106;5.534;2022-10-16T00:45:20;13.80;99.90
18297;DHT22;18066;52.106;5.534;2022-10-16T00:47:49;14.10;99.90
18297;DHT22;18066;52.106;5.534;2022-10-16T00:50:22;14.00;99.90
18297;DHT22;18066;52.106;5.534;2022-10-16T00:52:51;14.10;99.90
18297;DHT22;18066;52.106;5.534;2022-10-16T00:55:19;13.90;99.90
18297;DHT22;18066;52.106;5.534;2022-10-16T00:57:46;13.90;99.90
18297;DHT22;18066;52.106;5.534;2022-10-16T01:00:17;13.90;99.90
18297;DHT22;18066;52.106;5.534;2022-10-16T01:02:44;13.90;99.90
18297;DHT22;18066;52.106;5.534;2022-10-16T01:05:12;13.80;99.90
18297;DHT22;18066;52.106;5.534;2022-10-16T01:07:45;14.50;99.90
18297;DHT22;18066;52.106;5.534;2022-10-16T01:10:23;13.80;99.90
18297;DHT22;18066;52.106;5.534;2022-10-16T01:12:58;13.80;99.90
18297;DHT22;18066;52.106;5.534;2022-10-16T01:15:29;14.50;99.90
18297;DHT22;18066;52.106;5.534;2022-10-16T01:18:00;13.90;99.90
18297;DHT22;18066;52.106;5.534;2022-10-16T01:20:31;14.20;99.90
18297;DHT22;18066;52.106;5.534;2022-10-16T01:23:08;14.00;99.90
18297;DHT22;18066;52.106;5.534;2022-10-16T01:25:53;14.00;99.90
18297;DHT22;18066;52.106;5.534;2022-10-16T01:28:29;14.00;99.90
18297;DHT22;18066;52.106;5.534;2022-10-16T01:31:00;14.60;99.90
18297;DHT22;18066;52.106;5.534;2022-10-16T01:33:32;14.00;99.90
18297;DHT22;18066;52.106;5.534;2022-10-16T01:36:06;14.00;99.90
18297;DHT22;18066;52.106;5.534;2022-10-16T01:38:37;14.10;99.90
18297;DHT22;18066;52.106;5.534;2022-10-16T01:41:09;14.00;99.90
18297;DHT22;18066;52.106;5.534;2022-10-16T01:43:40;14.20;99.90
18297;DHT22;18066;52.106;5.534;2022-10-16T01:46:09;14.10;99.90
18297;DHT22;18066;52.106;5.534;2022-10-16T01:48:37;14.60;99.90
18297;DHT22;18066;52.106;5.534;2022-10-16T01:51:07;14.70;99.90
18297;DHT22;18066;52.106;5.534;2022-10-16T01:53:35;14.60;99.90
18297;DHT22;18066;52.106;5.534;2022-10-16T01:56:05;14.00;99.90
18297;DHT22;18066;52.106;5.534;2022-10-16T01:58:36;14.00;99.90
18297;DHT22;18066;52.106;5.534;2022-10-16T02:01:08;14.30;99.90
18297;DHT22;18066;52.106;5.534;2022-10-16T02:03:38;14.10;99.90
18297;DHT22;18066;52.106;5.534;2022-10-16T02:06:07;14.10;99.90
18297;DHT22;18066;52.106;5.534;2022-10-16T02:08:34;14.50;99.90
18297;DHT22;18066;52.106;5.534;2022-10-16T02:11:01;14.10;99.90
18297;DHT22;18066;52.106;5.534;2022-10-16T02:13:32;14.20;99.90
18297;DHT22;18066;52.106;5.534;2022-10-16T02:15:59;14.10;99.90
18297;DHT22;18066;52.106;5.534;2022-10-16T02:18:28;14.10;99.90
18297;DHT22;18066;52.106;5.534;2022-10-16T02:20:59;14.10;99.90
18297;DHT22;18066;52.106;5.534;2022-10-16T02:23:32;14.30;99.90
18297;DHT22;18066;52.106;5.534;2022-10-16T02:26:03;14.10;99.90
18297;DHT22;18066;52.106;5.534;2022-10-16T02:28:34;14.30;99.90
18297;DHT22;18066;52.106;5.534;2022-10-16T02:31:06;14.10;99.90
18297;DHT22;18066;52.106;5.534;2022-10-16T02:33:37;14.10;99.90
18297;DHT22;18066;52.106;5.534;2022-10-16T02:36:05;14.00;99.90
18297;DHT22;18066;52.106;5.534;2022-10-16T02:38:33;14.10;99.90
18297;DHT22;18066;52.106;5.534;2022-10-16T02:41:00;14.10;99.90
18297;DHT22;18066;52.106;5.534;2022-10-16T02:43:27;14.10;99.90
18297;DHT22;18066;52.106;5.534;2022-10-16T02:45:54;14.00;99.90
18297;DHT22;18066;52.106;5.534;2022-10-16T02:48:21;14.10;99.90
18297;DHT22;18066;52.106;5.534;2022-10-16T02:50:49;14.40;99.90
18297;DHT22;18066;52.106;5.534;2022-10-16T02:53:16;14.00;99.90
18297;DHT22;18066;52.106;5.534;2022-10-16T02:55:43;14.00;99.90
18297;DHT22;18066;52.106;5.534;2022-10-16T02:58:10;14.30;99.90
18297;DHT22;18066;52.106;5.534;2022-10-16T03:00:36;14.20;99.90
18297;DHT22;18066;52.106;5.534;2022-10-16T03:03:03;14.00;99.90
18297;DHT22;18066;52.106;5.534;2022-10-16T03:05:30;14.40;99.90
18297;DHT22;18066;52.106;5.534;2022-10-16T03:07:58;13.80;99.90
18297;DHT22;18066;52.106;5.534;2022-10-16T03:10:25;14.30;99.90
18297;DHT22;18066;52.106;5.534;2022-10-16T03:12:52;13.90;99.90
18297;DHT22;18066;52.106;5.534;2022-10-16T03:15:19;14.20;99.90
18297;DHT22;18066;52.106;5.534;2022-10-16T03:17:45;14.20;99.90
18297;DHT22;18066;52.106;5.534;2022-10-16T03:20:12;14.50;99.90
18297;DHT22;18066;52.106;5.534;2022-10-16T03:22:39;14.00;99.90
18297;DHT22;18066;52.106;5.534;2022-10-16T03:25:08;14.00;99.90
18297;DHT22;18066;52.106;5.534;2022-10-16T03:27:34;14.00;99.90
18297;DHT22;18066;52.106;5.534;2022-10-16T03:30:01;13.90;99.90
18297;DHT22;18066;52.106;5.534;2022-10-16T03:32:28;13.80;99.90
18297;DHT22;18066;52.106;5.534;2022-10-16T03:34:54;13.90;99.90
18297;DHT22;18066;52.106;5.534;2022-10-16T03:37:22;13.90;99.90
18297;DHT22;18066;52.106;5.534;2022-10-16T03:39:49;13.80;99.90
18297;DHT22;18066;52.106;5.534;2022-10-16T03:42:17;13.90;99.90
18297;DHT22;18066;52.106;5.534;2022-10-16T03:44:44;13.90;99.90
18297;DHT22;18066;52.106;5.534;2022-10-16T03:47:10;13.70;99.90
18297;DHT22;18066;52.106;5.534;2022-10-16T03:49:37;13.80;99.90
18297;DHT22;18066;52.106;5.534;2022-10-16T03:52:04;13.80;99.90
18297;DHT22;18066;52.106;5.534;2022-10-16T03:54:30;13.90;99.90
18297;DHT22;18066;52.106;5.534;2022-10-16T03:56:57;13.70;99.90
18297;DHT22;18066;52.106;5.534;2022-10-16T03:59:25;13.70;99.90
18297;DHT22;18066;52.106;5.534;2022-10-16T04:01:52;13.70;99.90
18297;DHT22;18066;52.106;5.534;2022-10-16T04:04:19;14.30;99.90
18297;DHT22;18066;52.106;5.534;2022-10-16T04:06:45;13.70;99.90
18297;DHT22;18066;52.106;5.534;2022-10-16T04:09:12;13.70;99.90
18297;DHT22;18066;52.106;5.534;2022-10-16T04:11:39;13.70;99.90
18297;DHT22;18066;52.106;5.534;2022-10-16T04:14:06;13.70;99.90
18297;DHT22;18066;52.106;5.534;2022-10-16T04:16:34;13.60;99.90
18297;DHT22;18066;52.106;5.534;2022-10-16T04:19:00;13.90;99.90
18297;DHT22;18066;52.106;5.534;2022-10-16T04:21:27;13.50;99.90
18297;DHT22;18066;52.106;5.534;2022-10-16T04:23:54;13.60;99.90
18297;DHT22;18066;52.106;5.534;2022-10-16T04:26:21;13.90;99.90
18297;DHT22;18066;52.106;5.534;2022-10-16T04:28:47;13.40;99.90
18297;DHT22;18066;52.106;5.534;2022-10-16T04:31:14;14.30;99.90
18297;DHT22;18066;52.106;5.534;2022-10-16T04:33:43;13.70;99.90
18297;DHT22;18066;52.106;5.534;2022-10-16T04:36:10;13.60;99.90
18297;DHT22;18066;52.106;5.534;2022-10-16T04:38:37;13.60;99.90
18297;DHT22;18066;52.106;5.534;2022-10-16T04:41:05;14.20;99.90
18297;DHT22;18066;52.106;5.534;2022-10-16T04:43:32;13.90;99.90
18297;DHT22;18066;52.106;5.534;2022-10-16T04:45:59;13.50;99.90
18297;DHT22;18066;52.106;5.534;2022-10-16T04:48:26;13.60;99.90
18297;DHT22;18066;52.106;5.534;2022-10-16T04:50:54;13.50;99.90
18297;DHT22;18066;52.106;5.534;2022-10-16T04:53:21;13.40;99.90
18297;DHT22;18066;52.106;5.534;2022-10-16T04:55:47;13.50;99.90
18297;DHT22;18066;52.106;5.534;2022-10-16T04:58:14;13.50;99.90
18297;DHT22;18066;52.106;5.534;2022-10-16T05:00:41;13.70;99.90
18297;DHT22;18066;52.106;5.534;2022-10-16T05:03:08;13.50;99.90
18297;DHT22;18066;52.106;5.534;2022-10-16T05:05:35;13.70;99.90
18297;DHT22;18066;52.106;5.534;2022-10-16T05:08:03;13.60;99.90
18297;DHT22;18066;52.106;5.534;2022-10-16T05:10:30;14.10;99.90
18297;DHT22;18066;52.106;5.534;2022-10-16T05:12:57;13.40;99.90
18297;DHT22;18066;52.106;5.534;2022-10-16T05:15:24;13.90;99.90
18297;DHT22;18066;52.106;5.534;2022-10-16T05:17:53;13.80;99.90
18297;DHT22;18066;52.106;5.534;2022-10-16T05:20:20;13.50;99.90
18297;DHT22;18066;52.106;5.534;2022-10-16T05:22:46;13.30;99.90
18297;DHT22;18066;52.106;5.534;2022-10-16T05:25:14;13.70;99.90
18297;DHT22;18066;52.106;5.534;2022-10-16T05:27:41;14.10;99.90
18297;DHT22;18066;52.106;5.534;2022-10-16T05:30:09;13.00;99.90
18297;DHT22;18066;52.106;5.534;2022-10-16T05:32:35;13.40;99.90
18297;DHT22;18066;52.106;5.534;2022-10-16T05:35:02;13.20;99.90
18297;DHT22;18066;52.106;5.534;2022-10-16T05:37:29;13.30;99.90
18297;DHT22;18066;52.106;5.534;2022-10-16T05:39:56;13.10;99.90
18297;DHT22;18066;52.106;5.534;2022-10-16T05:42:24;13.40;99.90
18297;DHT22;18066;52.106;5.534;2022-10-16T05:44:51;13.80;99.90
18297;DHT22;18066;52.106;5.534;2022-10-16T05:47:18;13.20;99.90
18297;DHT22;18066;52.106;5.534;2022-10-16T05:49:46;13.10;99.90
18297;DHT22;18066;52.106;5.534;2022-10-16T05:52:13;13.40;99.90
18297;DHT22;18066;52.106;5.534;2022-10-16T05:54:39;13.30;99.90
18297;DHT22;18066;52.106;5.534;2022-10-16T05:57:06;13.20;99.90
18297;DHT22;18066;52.106;5.534;2022-10-16T05:59:34;13.40;99.90
18297;DHT22;18066;52.106;5.534;2022-10-16T06:02:01;13.40;99.90
18297;DHT22;18066;52.106;5.534;2022-10-16T06:04:28;13.40;99.90
18297;DHT22;18066;52.106;5.534;2022-10-16T06:06:58;13.50;99.90
18297;DHT22;18066;52.106;5.534;2022-10-16T06:09:26;13.40;99.90
18297;DHT22;18066;52.106;5.534;2022-10-16T06:11:52;14.00;99.90
18297;DHT22;18066;52.106;5.534;2022-10-16T06:14:19;13.50;99.90
18297;DHT22;18066;52.106;5.534;2022-10-16T06:16:47;13.50;99.90
18297;DHT22;18066;52.106;5.534;2022-10-16T06:19:14;14.00;99.90
18297;DHT22;18066;52.106;5.534;2022-10-16T06:21:41;13.50;99.90
18297;DHT22;18066;52.106;5.534;2022-10-16T06:24:09;13.80;99.90
18297;DHT22;18066;52.106;5.534;2022-10-16T06:26:36;13.60;99.90
18297;DHT22;18066;52.106;5.534;2022-10-16T06:29:03;13.50;99.90
18297;DHT22;18066;52.106;5.534;2022-10-16T06:31:30;14.50;99.90
18297;DHT22;18066;52.106;5.534;2022-10-16T06:34:00;13.80;99.90
18297;DHT22;18066;52.106;5.534;2022-10-16T06:36:27;13.70;99.90
18297;DHT22;18066;52.106;5.534;2022-10-16T06:38:54;13.80;99.90
18297;DHT22;18066;52.106;5.534;2022-10-16T06:41:22;13.70;99.90
18297;DHT22;18066;52.106;5.534;2022-10-16T06:43:49;13.90;99.90
18297;DHT22;18066;52.106;5.534;2022-10-16T06:46:19;13.80;99.90
18297;DHT22;18066;52.106;5.534;2022-10-16T06:48:46;13.90;99.90
18297;DHT22;18066;52.106;5.534;2022-10-16T06:51:16;14.00;99.90
18297;DHT22;18066;52.106;5.534;2022-10-16T06:53:45;13.90;99.90
18297;DHT22;18066;52.106;5.534;2022-10-16T06:56:14;13.70;99.90
18297;DHT22;18066;52.106;5.534;2022-10-16T06:58:42;13.80;99.90
18297;DHT22;18066;52.106;5.534;2022-10-16T07:01:10;13.90;99.90
18297;DHT22;18066;52.106;5.534;2022-10-16T07:03:37;14.00;99.90
18297;DHT22;18066;52.106;5.534;2022-10-16T07:06:06;13.90;99.90
18297;DHT22;18066;52.106;5.534;2022-10-16T07:08:36;14.00;99.90
18297;DHT22;18066;52.106;5.534;2022-10-16T07:11:05;14.10;99.90
18297;DHT22;18066;52.106;5.534;2022-10-16T07:13:33;14.00;99.90
18297;DHT22;18066;52.106;5.534;2022-10-16T07:16:04;14.00;99.90
18297;DHT22;18066;52.106;5.534;2022-10-16T07:18:31;14.10;99.90
18297;DHT22;18066;52.106;5.534;2022-10-16T07:21:03;14.00;99.90
18297;DHT22;18066;52.106;5.534;2022-10-16T07:23:30;14.10;99.90
18297;DHT22;18066;52.106;5.534;2022-10-16T07:25:58;14.50;99.90
18297;DHT22;18066;52.106;5.534;2022-10-16T07:28:25;14.20;99.90
18297;DHT22;18066;52.106;5.534;2022-10-16T07:30:52;14.20;99.90
18297;DHT22;18066;52.106;5.534;2022-10-16T07:33:19;14.20;99.90
18297;DHT22;18066;52.106;5.534;2022-10-16T07:35:50;14.30;99.90
18297;DHT22;18066;52.106;5.534;2022-10-16T07:38:17;14.10;99.90
18297;DHT22;18066;52.106;5.534;2022-10-16T07:40:44;14.10;99.90
18297;DHT22;18066;52.106;5.534;2022-10-16T07:43:12;14.20;99.90
18297;DHT22;18066;52.106;5.534;2022-10-16T07:45:47;14.60;99.90
18297;DHT22;18066;52.106;5.534;2022-10-16T07:48:14;14.30;99.90
18297;DHT22;18066;52.106;5.534;2022-10-16T07:50:42;14.40;99.90
18297;DHT22;18066;52.106;5.534;2022-10-16T07:53:09;14.40;99.90
18297;DHT22;18066;52.106;5.534;2022-10-16T07:55:36;14.30;99.90
18297;DHT22;18066;52.106;5.534;2022-10-16T07:58:03;14.30;99.90
18297;DHT22;18066;52.106;5.534;2022-10-16T08:00:31;14.20;99.90
18297;DHT22;18066;52.106;5.534;2022-10-16T08:02:58;14.30;99.90
18297;DHT22;18066;52.106;5.534;2022-10-16T08:05:26;14.40;99.90
18297;DHT22;18066;52.106;5.534;2022-10-16T08:07:53;14.30;99.90
18297;DHT22;18066;52.106;5.534;2022-10-16T08:10:22;14.20;99.90
18297;DHT22;18066;52.106;5.534;2022-10-16T08:12:50;14.20;99.90
18297;DHT22;18066;52.106;5.534;2022-10-16T08:15:17;14.20;99.90
18297;DHT22;18066;52.106;5.534;2022-10-16T08:17:54;14.50;99.90
18297;DHT22;18066;52.106;5.534;2022-10-16T08:20:21;14.40;99.90
18297;DHT22;18066;52.106;5.534;2022-10-16T08:22:47;14.80;99.90
18297;DHT22;18066;52.106;5.534;2022-10-16T08:25:14;15.00;99.90
18297;DHT22;18066;52.106;5.534;2022-10-16T08:27:41;15.20;99.90
18297;DHT22;18066;52.106;5.534;2022-10-16T08:30:09;14.90;99.90
18297;DHT22;18066;52.106;5.534;2022-10-16T08:32:36;15.00;99.90
18297;DHT22;18066;52.106;5.534;2022-10-16T08:35:05;15.00;99.90
18297;DHT22;18066;52.106;5.534;2022-10-16T08:37:32;15.10;99.90
18297;DHT22;18066;52.106;5.534;2022-10-16T08:39:59;15.60;99.90
18297;DHT22;18066;52.106;5.534;2022-10-16T08:42:35;15.10;99.90
18297;DHT22;18066;52.106;5.534;2022-10-16T08:45:33;15.20;99.90
18297;DHT22;18066;52.106;5.534;2022-10-16T08:48:11;15.30;99.90
18297;DHT22;18066;52.106;5.534;2022-10-16T08:50:43;16.00;99.90
18297;DHT22;18066;52.106;5.534;2022-10-16T08:53:15;15.20;99.90
18297;DHT22;18066;52.106;5.534;2022-10-16T08:55:46;15.40;99.90
18297;DHT22;18066;52.106;5.534;2022-10-16T08:58:17;15.70;99.90
18297;DHT22;18066;52.106;5.534;2022-10-16T09:00:47;15.50;99.90
18297;DHT22;18066;52.106;5.534;2022-10-16T09:03:24;15.40;99.90
18297;DHT22;18066;52.106;5.534;2022-10-16T09:08:58;15.70;99.90
18297;DHT22;18066;52.106;5.534;2022-10-16T09:11:36;15.80;99.90
18297;DHT22;18066;52.106;5.534;2022-10-16T09:14:18;15.90;99.90
18297;DHT22;18066;52.106;5.534;2022-10-16T09:16:55;15.90;99.90
18297;DHT22;18066;52.106;5.534;2022-10-16T09:19:28;16.40;99.90
18297;DHT22;18066;52.106;5.534;2022-10-16T09:21:59;16.10;99.90
18297;DHT22;18066;52.106;5.534;2022-10-16T09:24:29;16.10;99.90
18297;DHT22;18066;52.106;5.534;2022-10-16T09:26:56;16.10;99.90
18297;DHT22;18066;52.106;5.534;2022-10-16T09:29:24;16.20;99.90
18297;DHT22;18066;52.106;5.534;2022-10-16T09:31:51;16.20;99.90
18297;DHT22;18066;52.106;5.534;2022-10-16T09:34:27;16.70;99.90
18297;DHT22;18066;52.106;5.534;2022-10-16T09:36:54;16.50;99.90
18297;DHT22;18066;52.106;5.534;2022-10-16T09:39:23;16.50;99.90
18297;DHT22;18066;52.106;5.534;2022-10-16T09:41:50;16.40;99.90
18297;DHT22;18066;52.106;5.534;2022-10-16T09:44:21;16.40;99.90
18297;DHT22;18066;52.106;5.534;2022-10-16T09:47:00;16.90;99.90
18297;DHT22;18066;52.106;5.534;2022-10-16T09:49:27;16.40;99.90
18297;DHT22;18066;52.106;5.534;2022-10-16T09:52:03;17.00;99.90
18297;DHT22;18066;52.106;5.534;2022-10-16T09:54:31;16.60;99.90
18297;DHT22;18066;52.106;5.534;2022-10-16T09:57:05;16.60;99.90
18297;DHT22;18066;52.106;5.534;2022-10-16T09:59:32;16.70;99.90
18297;DHT22;18066;52.106;5.534;2022-10-16T10:02:03;17.10;99.90
18297;DHT22;18066;52.106;5.534;2022-10-16T10:04:39;16.80;99.90
18297;DHT22;18066;52.106;5.534;2022-10-16T10:07:07;16.70;99.90
18297;DHT22;18066;52.106;5.534;2022-10-16T10:09:45;16.90;99.90
18297;DHT22;18066;52.106;5.534;2022-10-16T10:12:18;16.90;99.90
18297;DHT22;18066;52.106;5.534;2022-10-16T10:14:47;17.10;99.90
18297;DHT22;18066;52.106;5.534;2022-10-16T10:17:17;17.20;99.90
18297;DHT22;18066;52.106;5.534;2022-10-16T10:19:55;17.20;99.90
18297;DHT22;18066;52.106;5.534;2022-10-16T10:22:29;17.30;99.90
18297;DHT22;18066;52.106;5.534;2022-10-16T10:25:18;17.30;99.90
18297;DHT22;18066;52.106;5.534;2022-10-16T10:28:07;17.00;99.90
18297;DHT22;18066;52.106;5.534;2022-10-16T10:30:39;17.10;99.90
18297;DHT22;18066;52.106;5.534;2022-10-16T10:33:16;16.90;99.90
18297;DHT22;18066;52.106;5.534;2022-10-16T10:35:48;17.00;99.90
18297;DHT22;18066;52.106;5.534;2022-10-16T10:38:26;16.70;99.90
18297;DHT22;18066;52.106;5.534;2022-10-16T10:41:05;16.70;99.90
18297;DHT22;18066;52.106;5.534;2022-10-16T10:43:47;16.70;99.90
18297;DHT22;18066;52.106;5.534;2022-10-16T10:46:23;16.90;99.90
18297;DHT22;18066;52.106;5.534;2022-10-16T10:49:01;17.40;99.90
18297;DHT22;18066;52.106;5.534;2022-10-16T10:51:35;17.60;99.90
18297;DHT22;18066;52.106;5.534;2022-10-16T10:54:14;17.20;99.90
18297;DHT22;18066;52.106;5.534;2022-10-16T10:56:47;17.40;99.90
18297;DHT22;18066;52.106;5.534;2022-10-16T10:59:35;17.30;99.90
18297;DHT22;18066;52.106;5.534;2022-10-16T11:02:13;17.20;99.90
18297;DHT22;18066;52.106;5.534;2022-10-16T11:04:58;16.70;99.90
18297;DHT22;18066;52.106;5.534;2022-10-16T11:07:28;17.00;99.90
18297;DHT22;18066;52.106;5.534;2022-10-16T11:09:58;17.10;99.90
18297;DHT22;18066;52.106;5.534;2022-10-16T11:12:33;17.10;99.90
18297;DHT22;18066;52.106;5.534;2022-10-16T11:15:04;17.20;99.90
18297;DHT22;18066;52.106;5.534;2022-10-16T11:17:35;17.30;99.90
18297;DHT22;18066;52.106;5.534;2022-10-16T11:20:13;17.20;99.90
18297;DHT22;18066;52.106;5.534;2022-10-16T11:22:43;17.40;99.90
18297;DHT22;18066;52.106;5.534;2022-10-16T11:25:14;17.60;99.90
18297;DHT22;18066;52.106;5.534;2022-10-16T11:27:49;17.80;99.90
18297;DHT22;18066;52.106;5.534;2022-10-16T11:30:20;17.90;99.90
18297;DHT22;18066;52.106;5.534;2022-10-16T11:33:00;18.00;99.90
18297;DHT22;18066;52.106;5.534;2022-10-16T11:35:37;17.70;99.90
18297;DHT22;18066;52.106;5.534;2022-10-16T11:38:10;17.70;99.90
18297;DHT22;18066;52.106;5.534;2022-10-16T11:40:41;18.00;99.90
18297;DHT22;18066;52.106;5.534;2022-10-16T11:43:14;18.00;99.90
18297;DHT22;18066;52.106;5.534;2022-10-16T11:45:44;17.90;99.90
18297;DHT22;18066;52.106;5.534;2022-10-16T11:48:20;17.40;99.90
18297;DHT22;18066;52.106;5.534;2022-10-16T11:50:51;17.30;99.90
18297;DHT22;18066;52.106;5.534;2022-10-16T11:53:26;17.10;99.90
18297;DHT22;18066;52.106;5.534;2022-10-16T11:55:59;17.20;99.90
18297;DHT22;18066;52.106;5.534;2022-10-16T11:58:30;17.10;99.90
18297;DHT22;18066;52.106;5.534;2022-10-16T12:01:07;17.00;99.90
18297;DHT22;18066;52.106;5.534;2022-10-16T12:03:43;17.10;99.90
18297;DHT22;18066;52.106;5.534;2022-10-16T12:06:27;17.10;99.90
18297;DHT22;18066;52.106;5.534;2022-10-16T12:08:55;17.10;99.90
18297;DHT22;18066;52.106;5.534;2022-10-16T12:11:33;17.10;99.90
18297;DHT22;18066;52.106;5.534;2022-10-16T12:14:34;17.40;99.90
18297;DHT22;18066;52.106;5.534;2022-10-16T12:17:03;18.20;99.90
18297;DHT22;18066;52.106;5.534;2022-10-16T12:19:32;17.90;99.90
18297;DHT22;18066;52.106;5.534;2022-10-16T12:22:01;18.00;99.90
18297;DHT22;18066;52.106;5.534;2022-10-16T12:24:34;18.00;99.90
18297;DHT22;18066;52.106;5.534;2022-10-16T12:27:02;18.10;99.90
18297;DHT22;18066;52.106;5.534;2022-10-16T12:29:36;18.00;99.90
18297;DHT22;18066;52.106;5.534;2022-10-16T12:32:05;18.00;99.90
18297;DHT22;18066;52.106;5.534;2022-10-16T12:34:38;18.60;99.90
18297;DHT22;18066;52.106;5.534;2022-10-16T12:37:14;17.90;99.90
18297;DHT22;18066;52.106;5.534;2022-10-16T12:39:45;17.90;99.90
18297;DHT22;18066;52.106;5.534;2022-10-16T12:42:33;17.80;99.90
18297;DHT22;18066;52.106;5.534;2022-10-16T12:45:22;17.90;99.90
18297;DHT22;18066;52.106;5.534;2022-10-16T12:47:52;17.70;99.90
18297;DHT22;18066;52.106;5.534;2022-10-16T12:50:26;17.60;99.90
18297;DHT22;18066;52.106;5.534;2022-10-16T12:52:53;17.50;99.90
18297;DHT22;18066;52.106;5.534;2022-10-16T12:55:21;17.60;99.90
18297;DHT22;18066;52.106;5.534;2022-10-16T13:00:45;17.80;99.90
18297;DHT22;18066;52.106;5.534;2022-10-16T13:03:39;17.90;99.90
18297;DHT22;18066;52.106;5.534;2022-10-16T13:06:20;17.90;99.90
18297;DHT22;18066;52.106;5.534;2022-10-16T13:09:16;17.90;99.90
18297;DHT22;18066;52.106;5.534;2022-10-16T13:12:04;18.00;99.90
18297;DHT22;18066;52.106;5.534;2022-10-16T13:14:51;18.00;99.90
18297;DHT22;18066;52.106;5.534;2022-10-16T13:17:27;18.10;99.90
18297;DHT22;18066;52.106;5.534;2022-10-16T13:20:03;18.20;99.90
18297;DHT22;18066;52.106;5.534;2022-10-16T13:22:41;18.40;99.90
18297;DHT22;18066;52.106;5.534;2022-10-16T13:25:22;18.20;99.90
18297;DHT22;18066;52.106;5.534;2022-10-16T13:27:55;18.50;99.90
18297;DHT22;18066;52.106;5.534;2022-10-16T13:30:25;18.20;99.90
18297;DHT22;18066;52.106;5.534;2022-10-16T13:32:59;18.20;99.90
18297;DHT22;18066;52.106;5.534;2022-10-16T13:35:28;18.10;99.90
18297;DHT22;18066;52.106;5.534;2022-10-16T13:38:11;18.10;99.90
18297;DHT22;18066;52.106;5.534;2022-10-16T13:40:48;18.20;99.90
18297;DHT22;18066;52.106;5.534;2022-10-16T13:43:16;18.00;99.90
18297;DHT22;18066;52.106;5.534;2022-10-16T13:45:53;18.00;99.90
18297;DHT22;18066;52.106;5.534;2022-10-16T13:48:21;18.00;99.90
18297;DHT22;18066;52.106;5.534;2022-10-16T13:50:58;17.90;99.90
18297;DHT22;18066;52.106;5.534;2022-10-16T13:53:25;17.80;99.90
18297;DHT22;18066;52.106;5.534;2022-10-16T13:55:52;18.00;99.90
18297;DHT22;18066;52.106;5.534;2022-10-16T13:58:19;18.00;99.90
18297;DHT22;18066;52.106;5.534;2022-10-16T14:00:54;18.10;99.90
18297;DHT22;18066;52.106;5.534;2022-10-16T14:03:23;18.60;99.90
18297;DHT22;18066;52.106;5.534;2022-10-16T14:05:52;18.90;99.90
18297;DHT22;18066;52.106;5.534;2022-10-16T14:08:20;18.30;99.90
18297;DHT22;18066;52.106;5.534;2022-10-16T14:10:52;18.30;99.90
18297;DHT22;18066;52.106;5.534;2022-10-16T14:13:24;18.30;99.90
18297;DHT22;18066;52.106;5.534;2022-10-16T14:15:53;18.30;99.90
18297;DHT22;18066;52.106;5.534;2022-10-16T14:18:25;18.30;99.90
18297;DHT22;18066;52.106;5.534;2022-10-16T14:20:53;18.20;99.90
18297;DHT22;18066;52.106;5.534;2022-10-16T14:23:23;18.10;99.90
18297;DHT22;18066;52.106;5.534;2022-10-16T14:25:51;18.20;99.90
18297;DHT22;18066;52.106;5.534;2022-10-16T14:28:20;18.20;99.90
18297;DHT22;18066;52.106;5.534;2022-10-16T14:30:51;18.30;99.90
18297;DHT22;18066;52.106;5.534;2022-10-16T14:33:23;18.40;99.90
18297;DHT22;18066;52.106;5.534;2022-10-16T14:36:02;18.30;99.90
18297;DHT22;18066;52.106;5.534;2022-10-16T14:38:29;18.40;99.90
18297;DHT22;18066;52.106;5.534;2022-10-16T14:40:57;18.50;99.90
18297;DHT22;18066;52.106;5.534;2022-10-16T14:43:31;18.50;99.90
18297;DHT22;18066;52.106;5.534;2022-10-16T14:45:58;18.60;99.90
18297;DHT22;18066;52.106;5.534;2022-10-16T14:48:27;18.60;99.90
18297;DHT22;18066;52.106;5.534;2022-10-16T14:50:54;18.50;99.90
18297;DHT22;18066;52.106;5.534;2022-10-16T14:53:20;18.50;99.90
18297;DHT22;18066;52.106;5.534;2022-10-16T14:55:47;18.70;99.90
18297;DHT22;18066;52.106;5.534;2022-10-16T14:58:15;18.60;99.90
18297;DHT22;18066;52.106;5.534;2022-10-16T15:00:42;18.60;99.90
18297;DHT22;18066;52.106;5.534;2022-10-16T15:03:09;18.70;99.90
18297;DHT22;18066;52.106;5.534;2022-10-16T15:05:38;18.80;99.90
18297;DHT22;18066;52.106;5.534;2022-10-16T15:08:05;18.70;99.90
18297;DHT22;18066;52.106;5.534;2022-10-16T15:10:35;18.70;99.90
18297;DHT22;18066;52.106;5.534;2022-10-16T15:13:04;18.60;99.90
18297;DHT22;18066;52.106;5.534;2022-10-16T15:15:34;18.70;99.90
18297;DHT22;18066;52.106;5.534;2022-10-16T15:18:01;18.70;99.90
18297;DHT22;18066;52.106;5.534;2022-10-16T15:20:30;18.70;99.90
18297;DHT22;18066;52.106;5.534;2022-10-16T15:23:00;18.90;99.90
18297;DHT22;18066;52.106;5.534;2022-10-16T15:25:32;18.70;99.90
18297;DHT22;18066;52.106;5.534;2022-10-16T15:27:59;18.70;99.90
18297;DHT22;18066;52.106;5.534;2022-10-16T15:30:27;18.70;99.90
18297;DHT22;18066;52.106;5.534;2022-10-16T15:32:54;18.60;99.90
18297;DHT22;18066;52.106;5.534;2022-10-16T15:35:21;18.60;99.90
18297;DHT22;18066;52.106;5.534;2022-10-16T15:37:48;18.40;99.90
18297;DHT22;18066;52.106;5.534;2022-10-16T15:40:17;18.50;99.90
18297;DHT22;18066;52.106;5.534;2022-10-16T15:42:44;18.20;99.90
18297;DHT22;18066;52.106;5.534;2022-10-16T15:45:12;18.10;99.90
18297;DHT22;18066;52.106;5.534;2022-10-16T15:47:40;17.90;99.90
18297;DHT22;18066;52.106;5.534;2022-10-16T15:50:09;17.90;99.90
18297;DHT22;18066;52.106;5.534;2022-10-16T15:52:36;17.80;99.90
18297;DHT22;18066;52.106;5.534;2022-10-16T15:55:05;17.70;99.90